Time;durP1;ratioP1;P1;durP2;ratioP2;P2;SDS_P1;SDS_P2;PMS_P1;PMS_P2;Temp;Humidity;BMP_temperature;BMP_pressure;BME280_temperature;BME280_humidity;BME280_pressure;Samples;Min_cycle;Max_cycle;Signal;HPM_P1;HPM_P2
2023/08/26 00:00:24;;;;;;;55.25;39.80;;;;;;;;;;5051688;28;20469;-60
2023/08/26 00:02:50;;;;;;;65.60;43.72;;;;;;;;;;5051615;28;20179;-61
2023/08/26 00:05:16;;;;;;;59.47;44.05;;;;;;;;;;5052954;28;20016;-62
2023/08/26 00:07:42;;;;;;;64.78;44.13;;;;;;;;;;5053048;28;20021;-61
2023/08/26 00:10:08;;;;;;;66.43;44.13;;;;;;;;;;5053476;28;20031;-63
2023/08/26 00:12:34;;;;;;;65.03;44.30;;;;;;;;;;5052578;28;20501;-59
2023/08/26 00:15:00;;;;;;;61.30;43.63;;;;;;;;;;5051300;28;20017;-61
2023/08/26 00:17:26;;;;;;;60.78;40.05;;;;;;;;;;5052994;28;20424;-62
2023/08/26 00:19:52;;;;;;;58.53;41.30;;;;;;;;;;5052341;28;20112;-61
2023/08/26 00:22:18;;;;;;;57.55;40.95;;;;;;;;;;5052189;28;20025;-59
2023/08/26 00:24:44;;;;;;;57.47;40.63;;;;;;;;;;5052053;28;20027;-63
2023/08/26 00:27:10;;;;;;;56.67;40.72;;;;;;;;;;5052569;28;20028;-63
2023/08/26 00:29:36;;;;;;;60.03;42.05;;;;;;;;;;5052451;28;20024;-65
2023/08/26 00:32:02;;;;;;;66.05;43.78;;;;;;;;;;5053014;28;20389;-59
2023/08/26 00:34:28;;;;;;;66.15;44.80;;;;;;;;;;5052552;28;20033;-64
2023/08/26 00:36:54;;;;;;;70.53;46.67;;;;;;;;;;5052376;28;20085;-62
2023/08/26 00:39:20;;;;;;;69.32;45.40;;;;;;;;;;5052455;28;20025;-61
2023/08/26 00:41:47;;;;;;;62.50;44.55;;;;;;;;;;5052617;28;20021;-63
2023/08/26 00:44:13;;;;;;;67.68;45.97;;;;;;;;;;5051097;28;20149;-63
2023/08/26 00:46:39;;;;;;;67.22;45.58;;;;;;;;;;5052181;28;20056;-61
2023/08/26 00:49:05;;;;;;;68.50;47.72;;;;;;;;;;5052263;28;20090;-62
2023/08/26 00:51:31;;;;;;;65.97;46.47;;;;;;;;;;5052149;28;20033;-63
2023/08/26 00:53:58;;;;;;;64.78;43.70;;;;;;;;;;5052112;28;20032;-62
2023/08/26 00:56:24;;;;;;;73.25;48.00;;;;;;;;;;5052215;28;20087;-64
2023/08/26 00:58:50;;;;;;;67.82;46.78;;;;;;;;;;5050571;28;20037;-63
2023/08/26 01:01:16;;;;;;;70.95;46.08;;;;;;;;;;5050056;28;20098;-63
2023/08/26 01:03:42;;;;;;;67.28;44.55;;;;;;;;;;5052028;28;20453;-63
2023/08/26 01:06:08;;;;;;;63.25;46.90;;;;;;;;;;5050542;28;20058;-63
2023/08/26 01:08:34;;;;;;;61.90;40.90;;;;;;;;;;5051841;28;20036;-63
2023/08/26 01:11:12;;;;;;;59.45;44.30;;;;;;;;;;5051749;28;20036;-61
2023/08/26 01:13:58;;;;;;;60.00;43.97;;;;;;;;;;5051719;28;20127;-63
2023/08/26 01:16:25;;;;;;;60.60;42.30;;;;;;;;;;5051942;28;20021;-63
2023/08/26 01:18:51;;;;;;;61.60;41.05;;;;;;;;;;5051707;28;20048;-63
2023/08/26 01:21:18;;;;;;;58.70;41.10;;;;;;;;;;5050905;28;20028;-63
2023/08/26 01:23:45;;;;;;;55.75;40.65;;;;;;;;;;5051103;28;20033;-61
2023/08/26 01:26:11;;;;;;;59.85;43.25;;;;;;;;;;5051818;28;20025;-63
2023/08/26 01:28:37;;;;;;;56.80;40.75;;;;;;;;;;5051674;28;20036;-64
2023/08/26 01:31:09;;;;;;;58.28;41.47;;;;;;;;;;5049963;28;20120;-64
2023/08/26 01:33:58;;;;;;;58.47;40.25;;;;;;;;;;5051271;28;20061;-62
2023/08/26 01:36:26;;;;;;;56.25;41.00;;;;;;;;;;5040852;28;20316;-60
2023/08/26 01:38:53;;;;;;;62.88;41.60;;;;;;;;;;5050942;28;20017;-62
2023/08/26 01:41:19;;;;;;;58.83;41.90;;;;;;;;;;5051133;28;20497;-60
2023/08/26 01:43:46;;;;;;;57.72;41.05;;;;;;;;;;5051400;28;20036;-61
2023/08/26 01:46:12;;;;;;;64.25;41.47;;;;;;;;;;5049913;28;20021;-62
2023/08/26 01:48:38;;;;;;;62.55;41.28;;;;;;;;;;5051509;28;20079;-62
2023/08/26 01:51:04;;;;;;;61.90;42.30;;;;;;;;;;5051635;28;20400;-60
2023/08/26 01:53:30;;;;;;;55.92;40.05;;;;;;;;;;5050832;28;20111;-61
2023/08/26 01:55:56;;;;;;;57.83;40.88;;;;;;;;;;5050998;28;20021;-61
2023/08/26 01:58:22;;;;;;;60.10;39.40;;;;;;;;;;5049677;28;20037;-59
2023/08/26 02:00:48;;;;;;;57.28;39.35;;;;;;;;;;5051516;28;20436;-63
2023/08/26 02:03:14;;;;;;;57.67;38.15;;;;;;;;;;5051384;28;20075;-62
2023/08/26 02:05:40;;;;;;;56.30;38.90;;;;;;;;;;5051314;28;20021;-62
2023/08/26 02:08:06;;;;;;;57.05;38.08;;;;;;;;;;5051721;28;20597;-61
2023/08/26 02:10:32;;;;;;;55.78;38.83;;;;;;;;;;5051223;28;20435;-63
2023/08/26 02:12:58;;;;;;;53.05;37.80;;;;;;;;;;5050288;28;20100;-62
2023/08/26 02:15:24;;;;;;;59.30;39.17;;;;;;;;;;5049702;28;20133;-62
2023/08/26 02:17:50;;;;;;;54.88;36.75;;;;;;;;;;5049933;28;20515;-61
2023/08/26 02:20:16;;;;;;;54.72;38.95;;;;;;;;;;5051340;28;20493;-63
2023/08/26 02:22:42;;;;;;;56.78;36.67;;;;;;;;;;5051305;28;20025;-63
2023/08/26 02:25:09;;;;;;;56.17;37.95;;;;;;;;;;5054414;28;20121;-63
2023/08/26 02:27:34;;;;;;;55.95;36.72;;;;;;;;;;5053209;28;20443;-63
2023/08/26 02:30:00;;;;;;;53.28;35.38;;;;;;;;;;5054465;28;20025;-63
2023/08/26 02:32:26;;;;;;;50.70;36.10;;;;;;;;;;5054605;28;20029;-61
2023/08/26 02:34:52;;;;;;;52.17;35.42;;;;;;;;;;5054045;28;20068;-62
2023/08/26 02:37:18;;;;;;;50.65;34.53;;;;;;;;;;5054028;28;20017;-60
2023/08/26 02:39:45;;;;;;;51.58;32.88;;;;;;;;;;5054781;28;20053;-62
2023/08/26 02:42:11;;;;;;;50.85;34.03;;;;;;;;;;5054752;28;20029;-63
2023/08/26 02:44:37;;;;;;;50.50;31.67;;;;;;;;;;5054361;28;20366;-63
2023/08/26 02:47:03;;;;;;;49.80;34.25;;;;;;;;;;5054386;28;20033;-60
2023/08/26 02:49:29;;;;;;;54.42;34.10;;;;;;;;;;5054524;28;20086;-63
2023/08/26 02:51:55;;;;;;;47.67;33.92;;;;;;;;;;5054926;28;20033;-61
2023/08/26 02:54:21;;;;;;;49.95;33.00;;;;;;;;;;5052843;28;20135;-62
2023/08/26 02:56:47;;;;;;;46.92;32.28;;;;;;;;;;5054573;28;20025;-62
2023/08/26 02:59:13;;;;;;;52.50;33.88;;;;;;;;;;5054147;28;20028;-63
2023/08/26 03:01:39;;;;;;;47.33;32.58;;;;;;;;;;5054256;28;20390;-63
2023/08/26 03:04:05;;;;;;;48.30;33.75;;;;;;;;;;5053804;28;20096;-62
2023/08/26 03:06:31;;;;;;;44.92;30.52;;;;;;;;;;5053944;28;20036;-63
2023/08/26 03:08:57;;;;;;;44.50;28.80;;;;;;;;;;5053881;28;20033;-63
2023/08/26 03:11:23;;;;;;;46.08;29.65;;;;;;;;;;5053168;28;20407;-64
2023/08/26 03:13:52;;;;;;;46.03;30.27;;;;;;;;;;5054011;28;20060;-64
2023/08/26 03:16:18;;;;;;;46.95;28.98;;;;;;;;;;5053798;28;20021;-63
2023/08/26 03:18:44;;;;;;;46.00;31.63;;;;;;;;;;5053728;28;20024;-63
2023/08/26 03:21:10;;;;;;;48.75;31.50;;;;;;;;;;5053899;28;20074;-63
2023/08/26 03:23:36;;;;;;;49.85;31.55;;;;;;;;;;5053357;28;20104;-62
2023/08/26 03:26:03;;;;;;;42.58;29.35;;;;;;;;;;5053360;28;20032;-62
2023/08/26 03:28:29;;;;;;;46.78;30.40;;;;;;;;;;5052281;28;20021;-59
2023/08/26 03:31:02;;;;;;;47.30;30.45;;;;;;;;;;5051901;28;20021;-62
2023/08/26 03:33:28;;;;;;;44.97;30.02;;;;;;;;;;5053310;28;20037;-54
2023/08/26 03:35:54;;;;;;;45.10;30.08;;;;;;;;;;5051687;28;20482;-63
2023/08/26 03:38:20;;;;;;;43.53;28.98;;;;;;;;;;5052910;28;20029;-61
2023/08/26 03:40:46;;;;;;;47.00;28.85;;;;;;;;;;5051288;28;20086;-62
2023/08/26 03:43:12;;;;;;;40.70;25.20;;;;;;;;;;5052775;28;20025;-63
2023/08/26 03:45:39;;;;;;;42.47;26.90;;;;;;;;;;5052721;28;20033;-63
2023/08/26 03:48:05;;;;;;;41.15;27.25;;;;;;;;;;5052676;28;20029;-63
2023/08/26 03:50:31;;;;;;;41.85;27.88;;;;;;;;;;5052828;28;20025;-62
2023/08/26 03:52:57;;;;;;;34.88;21.83;;;;;;;;;;5051156;28;20031;-62
2023/08/26 03:55:23;;;;;;;31.27;20.13;;;;;;;;;;5051982;28;20037;-63
2023/08/26 03:57:49;;;;;;;28.35;18.42;;;;;;;;;;5065936;23;20043;-50
2023/08/26 04:00:16;;;;;;;30.08;17.65;;;;;;;;;;5073068;28;20039;-49
2023/08/26 04:02:42;;;;;;;25.15;15.70;;;;;;;;;;5054837;28;20025;-50
2023/08/26 04:05:08;;;;;;;28.98;16.67;;;;;;;;;;5071982;28;20036;-56
2023/08/26 04:07:34;;;;;;;27.40;16.55;;;;;;;;;;5071942;28;20555;-54
2023/08/26 04:10:00;;;;;;;26.23;16.80;;;;;;;;;;5071835;28;20067;-56
2023/08/26 04:12:26;;;;;;;22.42;13.88;;;;;;;;;;5053278;28;20465;-55
2023/08/26 04:14:52;;;;;;;21.70;11.77;;;;;;;;;;5071816;28;20035;-56
2023/08/26 04:17:18;;;;;;;21.30;9.40;;;;;;;;;;5071698;28;20066;-54
2023/08/26 04:19:44;;;;;;;22.77;10.85;;;;;;;;;;5071967;28;20028;-52
2023/08/26 04:22:10;;;;;;;20.13;8.90;;;;;;;;;;5071840;28;20020;-54
2023/08/26 04:24:36;;;;;;;19.05;7.57;;;;;;;;;;5071287;28;20196;-53
2023/08/26 04:27:02;;;;;;;16.73;7.88;;;;;;;;;;5071852;28;20052;-51
2023/08/26 04:29:28;;;;;;;17.75;8.27;;;;;;;;;;5071932;28;20032;-50
2023/08/26 04:31:54;;;;;;;22.95;8.50;;;;;;;;;;5054167;28;20369;-50
2023/08/26 04:34:20;;;;;;;22.23;8.15;;;;;;;;;;5071894;28;20465;-50
2023/08/26 04:36:46;;;;;;;18.75;7.75;;;;;;;;;;5072159;28;20031;-54
2023/08/26 04:39:12;;;;;;;18.90;7.88;;;;;;;;;;5072145;28;20535;-54
2023/08/26 04:41:39;;;;;;;20.60;8.35;;;;;;;;;;5072186;28;20032;-56
2023/08/26 04:44:05;;;;;;;20.88;7.75;;;;;;;;;;5072218;28;20033;-56
2023/08/26 04:46:31;;;;;;;18.65;8.27;;;;;;;;;;5053212;28;20035;-56
2023/08/26 04:48:57;;;;;;;24.10;8.32;;;;;;;;;;5053615;28;20024;-56
2023/08/26 04:51:23;;;;;;;20.77;8.35;;;;;;;;;;5071195;28;20081;-56
2023/08/26 04:53:49;;;;;;;19.83;7.88;;;;;;;;;;5071106;28;20651;-56
2023/08/26 04:56:15;;;;;;;19.02;7.85;;;;;;;;;;5053257;28;20119;-56
2023/08/26 04:58:41;;;;;;;17.80;7.10;;;;;;;;;;5070885;28;20036;-56
2023/08/26 05:01:07;;;;;;;15.52;6.75;;;;;;;;;;5071103;28;20035;-54
2023/08/26 05:03:33;;;;;;;20.80;7.03;;;;;;;;;;5071209;28;20033;-53
2023/08/26 05:05:59;;;;;;;17.15;6.18;;;;;;;;;;5070977;28;20025;-54
2023/08/26 05:08:25;;;;;;;17.92;6.63;;;;;;;;;;5053114;28;20468;-55
2023/08/26 05:10:51;;;;;;;17.85;6.82;;;;;;;;;;5053210;28;20024;-53
2023/08/26 05:13:17;;;;;;;17.85;6.35;;;;;;;;;;5053156;28;20089;-55
2023/08/26 05:15:43;;;;;;;15.48;5.72;;;;;;;;;;5070889;28;20063;-54
2023/08/26 05:18:09;;;;;;;15.65;6.13;;;;;;;;;;5070998;28;20028;-55
2023/08/26 05:20:35;;;;;;;15.18;5.60;;;;;;;;;;5071068;28;20020;-54
2023/08/26 05:23:01;;;;;;;17.80;6.10;;;;;;;;;;5070762;28;20465;-54
2023/08/26 05:25:27;;;;;;;17.02;6.85;;;;;;;;;;5052772;28;20096;-52
2023/08/26 05:27:53;;;;;;;16.38;5.82;;;;;;;;;;5052761;28;20078;-57
2023/08/26 05:30:20;;;;;;;17.15;6.07;;;;;;;;;;5071063;28;20127;-55
2023/08/26 05:32:46;;;;;;;17.23;6.85;;;;;;;;;;5070928;28;20437;-52
2023/08/26 05:35:12;;;;;;;18.60;6.22;;;;;;;;;;5070763;28;20032;-54
2023/08/26 05:37:43;;;;;;;14.45;5.50;;;;;;;;;;5070959;28;20017;-55
2023/08/26 05:40:09;;;;;;;15.50;5.78;;;;;;;;;;5071029;28;20028;-55
2023/08/26 05:42:35;;;;;;;17.77;5.95;;;;;;;;;;5052972;28;20111;-52
2023/08/26 05:45:01;;;;;;;16.85;5.85;;;;;;;;;;5070975;28;20094;-53
2023/08/26 05:47:27;;;;;;;15.77;6.25;;;;;;;;;;5070862;28;20025;-50
2023/08/26 05:49:53;;;;;;;19.23;6.80;;;;;;;;;;5070904;28;20439;-54
2023/08/26 05:52:19;;;;;;;18.85;6.20;;;;;;;;;;5052718;28;20017;-52
2023/08/26 05:54:45;;;;;;;16.90;6.30;;;;;;;;;;5070599;28;20028;-52
2023/08/26 05:57:11;;;;;;;18.85;6.63;;;;;;;;;;5070887;28;20457;-50
2023/08/26 05:59:38;;;;;;;21.17;6.72;;;;;;;;;;5073531;28;20040;-53
2023/08/26 06:02:04;;;;;;;18.10;6.75;;;;;;;;;;5074543;28;20020;-57
2023/08/26 06:04:30;;;;;;;16.52;6.78;;;;;;;;;;5056502;28;20538;-54
2023/08/26 06:06:57;;;;;;;14.73;6.20;;;;;;;;;;5074487;28;20036;-56
2023/08/26 06:09:24;;;;;;;17.00;6.70;;;;;;;;;;5056496;28;20047;-50
2023/08/26 06:11:50;;;;;;;17.35;7.15;;;;;;;;;;5074728;28;20028;-56
2023/08/26 06:14:16;;;;;;;18.33;6.80;;;;;;;;;;5074183;28;20384;-55
2023/08/26 06:16:42;;;;;;;20.27;6.72;;;;;;;;;;5056635;28;20021;-49
2023/08/26 06:19:08;;;;;;;16.60;6.45;;;;;;;;;;5074115;28;20482;-50
2023/08/26 06:21:34;;;;;;;16.70;6.78;;;;;;;;;;5074325;28;20021;-55
2023/08/26 06:24:01;;;;;;;21.23;7.20;;;;;;;;;;5073545;28;20496;-52
2023/08/26 06:26:26;;;;;;;20.38;7.43;;;;;;;;;;5074157;28;20024;-55
2023/08/26 06:28:52;;;;;;;18.25;6.82;;;;;;;;;;5074027;28;20527;-52
2023/08/26 06:31:19;;;;;;;20.70;7.20;;;;;;;;;;5074172;28;20136;-50
2023/08/26 06:33:45;;;;;;;19.40;7.18;;;;;;;;;;5073756;28;20024;-52
2023/08/26 06:36:11;;;;;;;16.70;7.07;;;;;;;;;;5073767;28;20078;-54
2023/08/26 06:38:37;;;;;;;21.98;6.80;;;;;;;;;;5056098;28;20524;-50
2023/08/26 06:41:03;;;;;;;16.85;6.70;;;;;;;;;;5073850;28;20016;-49
2023/08/26 06:43:29;;;;;;;16.00;6.70;;;;;;;;;;5074060;28;20024;-54
2023/08/26 06:45:55;;;;;;;18.00;6.97;;;;;;;;;;5052922;28;20025;-51
2023/08/26 06:48:21;;;;;;;19.08;6.80;;;;;;;;;;5057554;28;20032;-51
2023/08/26 06:50:48;;;;;;;15.10;6.65;;;;;;;;;;5045252;28;20396;-54
2023/08/26 06:53:20;;;;;;;19.00;6.47;;;;;;;;;;5073516;28;20021;-53
2023/08/26 06:55:46;;;;;;;17.45;6.35;;;;;;;;;;5056875;28;20033;-55
2023/08/26 06:58:12;;;;;;;19.15;6.25;;;;;;;;;;5053221;28;20036;-56
2023/08/26 07:00:38;;;;;;;19.42;6.80;;;;;;;;;;5053486;28;20025;-56
2023/08/26 07:03:04;;;;;;;17.55;6.13;;;;;;;;;;5059159;28;20519;-56
2023/08/26 07:05:30;;;;;;;17.00;6.60;;;;;;;;;;5072816;28;20029;-51
2023/08/26 07:07:56;;;;;;;16.35;6.93;;;;;;;;;;5072977;28;20094;-55
2023/08/26 07:10:22;;;;;;;16.27;6.25;;;;;;;;;;5072681;28;20063;-54
2023/08/26 07:12:48;;;;;;;17.63;6.93;;;;;;;;;;5055102;28;20021;-56
2023/08/26 07:15:14;;;;;;;18.17;8.20;;;;;;;;;;5072590;28;20051;-53
2023/08/26 07:17:40;;;;;;;16.80;7.72;;;;;;;;;;5072667;28;20035;-54
2023/08/26 07:20:06;;;;;;;17.60;8.30;;;;;;;;;;5067104;28;20432;-53
2023/08/26 07:22:32;;;;;;;16.80;7.93;;;;;;;;;;5052808;28;20078;-53
2023/08/26 07:24:58;;;;;;;17.90;7.57;;;;;;;;;;5052858;28;20179;-55
2023/08/26 07:27:24;;;;;;;19.88;8.13;;;;;;;;;;5052736;28;20423;-55
2023/08/26 07:29:50;;;;;;;18.58;7.90;;;;;;;;;;5052733;28;20028;-57
2023/08/26 07:32:16;;;;;;;16.92;7.63;;;;;;;;;;5052767;28;20039;-53
2023/08/26 07:34:42;;;;;;;17.25;8.13;;;;;;;;;;5052462;28;20021;-58
2023/08/26 07:37:08;;;;;;;17.00;8.02;;;;;;;;;;5052604;28;20033;-53
2023/08/26 07:39:34;;;;;;;17.42;8.85;;;;;;;;;;5053215;28;20029;-53
2023/08/26 07:42:00;;;;;;;17.00;8.23;;;;;;;;;;5055473;28;20021;-55
2023/08/26 07:44:26;;;;;;;21.17;8.07;;;;;;;;;;5054814;28;20456;-55
2023/08/26 07:46:52;;;;;;;16.38;8.15;;;;;;;;;;5052382;28;20036;-52
2023/08/26 07:49:18;;;;;;;19.02;8.77;;;;;;;;;;5052414;28;20040;-53
2023/08/26 07:51:44;;;;;;;16.73;8.43;;;;;;;;;;5051021;28;20075;-49
2023/08/26 07:54:10;;;;;;;16.98;7.40;;;;;;;;;;5052008;28;20060;-58
2023/08/26 07:56:36;;;;;;;15.60;7.72;;;;;;;;;;5052464;28;20025;-53
2023/08/26 07:59:02;;;;;;;18.50;8.80;;;;;;;;;;5052362;28;20086;-54
2023/08/26 08:01:28;;;;;;;17.45;8.82;;;;;;;;;;5052553;28;20029;-57
2023/08/26 08:03:54;;;;;;;15.60;7.90;;;;;;;;;;5052323;28;20040;-50
2023/08/26 08:06:20;;;;;;;16.58;8.30;;;;;;;;;;5052599;28;20470;-51
2023/08/26 08:08:46;;;;;;;17.35;8.15;;;;;;;;;;5057088;28;20207;-58
2023/08/26 08:11:12;;;;;;;15.80;8.48;;;;;;;;;;5071022;28;20035;-54
2023/08/26 08:13:38;;;;;;;17.23;8.10;;;;;;;;;;5071804;28;20028;-54
2023/08/26 08:16:04;;;;;;;15.95;8.32;;;;;;;;;;5070650;28;20021;-54
2023/08/26 08:18:31;;;;;;;22.90;8.50;;;;;;;;;;5057339;28;20064;-54
2023/08/26 08:20:57;;;;;;;16.75;8.43;;;;;;;;;;5035117;28;20509;-56
2023/08/26 08:23:24;;;;;;;15.30;8.30;;;;;;;;;;5069542;28;20021;-55
2023/08/26 08:25:50;;;;;;;15.50;8.43;;;;;;;;;;5070359;28;20085;-56
2023/08/26 08:28:16;;;;;;;17.48;8.63;;;;;;;;;;5070435;28;20127;-52
2023/08/26 08:30:42;;;;;;;18.10;9.13;;;;;;;;;;5070529;28;20047;-56
2023/08/26 08:33:08;;;;;;;16.45;8.73;;;;;;;;;;5070615;28;20476;-54
2023/08/26 08:35:34;;;;;;;15.38;8.82;;;;;;;;;;5071236;28;20032;-55
2023/08/26 08:38:00;;;;;;;16.55;8.98;;;;;;;;;;5071395;28;20017;-57
2023/08/26 08:40:26;;;;;;;16.55;8.57;;;;;;;;;;5071716;28;20031;-56
2023/08/26 08:42:53;;;;;;;18.48;9.65;;;;;;;;;;5070293;28;20027;-58
2023/08/26 08:45:19;;;;;;;15.15;8.73;;;;;;;;;;5069912;28;20035;-53
2023/08/26 08:47:46;;;;;;;17.70;10.10;;;;;;;;;;5066444;28;20408;-55
2023/08/26 08:50:14;;;;;;;17.33;9.07;;;;;;;;;;5050057;28;20021;-54
2023/08/26 08:52:42;;;;;;;15.38;9.20;;;;;;;;;;5050146;28;20041;-57
2023/08/26 08:55:08;;;;;;;17.15;8.93;;;;;;;;;;5050968;28;20029;-58
2023/08/26 08:57:35;;;;;;;18.95;9.40;;;;;;;;;;5051401;28;20149;-54
2023/08/26 09:00:03;;;;;;;15.63;8.77;;;;;;;;;;5049895;28;20446;-56
2023/08/26 09:02:29;;;;;;;16.15;8.70;;;;;;;;;;5051182;28;20047;-57
2023/08/26 09:04:55;;;;;;;15.00;8.90;;;;;;;;;;5050333;28;20033;-56
2023/08/26 09:07:22;;;;;;;15.57;8.60;;;;;;;;;;5049806;28;20456;-58
2023/08/26 09:09:48;;;;;;;15.48;8.52;;;;;;;;;;5050875;28;20221;-58
2023/08/26 09:12:14;;;;;;;17.67;9.27;;;;;;;;;;5051031;28;20096;-58
2023/08/26 09:14:40;;;;;;;15.63;8.70;;;;;;;;;;5050850;28;20103;-57
2023/08/26 09:17:24;;;;;;;17.27;9.38;;;;;;;;;;5051013;28;20025;-56
2023/08/26 09:19:55;;;;;;;16.15;8.60;;;;;;;;;;5050898;28;20116;-55
2023/08/26 09:22:25;;;;;;;16.15;8.95;;;;;;;;;;5051082;28;20473;-58
2023/08/26 09:24:58;;;;;;;17.10;8.88;;;;;;;;;;5051244;28;20056;-57
2023/08/26 09:27:24;;;;;;;17.75;9.15;;;;;;;;;;5050864;28;20053;-57
2023/08/26 09:29:51;;;;;;;15.63;8.65;;;;;;;;;;5050935;28;20090;-54
2023/08/26 09:32:30;;;;;;;16.52;8.80;;;;;;;;;;5050584;28;20029;-55
2023/08/26 09:35:08;;;;;;;16.10;8.15;;;;;;;;;;5055021;28;20025;-54
2023/08/26 09:37:34;;;;;;;14.30;8.20;;;;;;;;;;5054828;28;20028;-58
2023/08/26 09:40:00;;;;;;;15.85;8.85;;;;;;;;;;5053339;28;20032;-56
2023/08/26 09:42:26;;;;;;;16.80;9.00;;;;;;;;;;5054660;28;20029;-57
2023/08/26 09:44:56;;;;;;;14.10;8.40;;;;;;;;;;5054029;28;20036;-57
2023/08/26 09:47:22;;;;;;;14.63;8.50;;;;;;;;;;5054606;28;20032;-56
2023/08/26 09:49:49;;;;;;;14.93;9.02;;;;;;;;;;5054777;28;20048;-57
2023/08/26 09:52:15;;;;;;;17.17;8.13;;;;;;;;;;5054570;28;20025;-52
2023/08/26 09:54:43;;;;;;;17.33;8.90;;;;;;;;;;5054236;28;20036;-55
2023/08/26 09:57:11;;;;;;;14.57;8.27;;;;;;;;;;5054243;28;20114;-56
2023/08/26 09:59:37;;;;;;;14.50;8.90;;;;;;;;;;5085914;23;20088;-56
2023/08/26 10:02:08;;;;;;;16.17;9.02;;;;;;;;;;5073515;28;20051;-48
2023/08/26 10:04:36;;;;;;;15.55;8.80;;;;;;;;;;5072802;28;20400;-52
2023/08/26 10:07:03;;;;;;;14.88;8.77;;;;;;;;;;5072886;28;20407;-57
2023/08/26 10:09:38;;;;;;;14.43;8.88;;;;;;;;;;5072885;28;20353;-55
2023/08/26 10:12:06;;;;;;;16.40;9.55;;;;;;;;;;5073121;28;20032;-58
2023/08/26 10:14:33;;;;;;;17.52;9.75;;;;;;;;;;5072092;28;20597;-56
2023/08/26 10:17:05;;;;;;;16.45;9.20;;;;;;;;;;5055010;28;20033;-54
2023/08/26 10:19:31;;;;;;;16.27;9.40;;;;;;;;;;5072845;28;20127;-55
2023/08/26 10:21:57;;;;;;;15.98;9.65;;;;;;;;;;5072732;28;20093;-50
2023/08/26 10:24:24;;;;;;;16.83;9.95;;;;;;;;;;5072398;28;20067;-55
2023/08/26 10:26:50;;;;;;;17.77;10.35;;;;;;;;;;5054786;28;20021;-58
2023/08/26 10:29:16;;;;;;;16.70;9.90;;;;;;;;;;5072635;28;20115;-56
2023/08/26 10:31:45;;;;;;;16.83;9.45;;;;;;;;;;5054368;28;20024;-53
2023/08/26 10:34:11;;;;;;;15.75;9.75;;;;;;;;;;5072366;28;20032;-56
2023/08/26 10:36:38;;;;;;;18.08;10.00;;;;;;;;;;5072776;28;20028;-56
2023/08/26 10:39:05;;;;;;;17.05;9.73;;;;;;;;;;5072481;28;20051;-54
2023/08/26 10:41:31;;;;;;;15.77;10.07;;;;;;;;;;5072658;28;20066;-50
2023/08/26 10:43:58;;;;;;;16.10;10.13;;;;;;;;;;5071307;28;20122;-53
2023/08/26 10:46:32;;;;;;;17.00;10.20;;;;;;;;;;5072253;28;20021;-54
2023/08/26 10:48:59;;;;;;;15.88;9.63;;;;;;;;;;5057641;28;20087;-55
2023/08/26 10:51:25;;;;;;;15.98;10.18;;;;;;;;;;5052234;28;20036;-55
2023/08/26 10:53:51;;;;;;;15.55;10.15;;;;;;;;;;5050738;28;20056;-53
2023/08/26 10:56:18;;;;;;;15.63;10.20;;;;;;;;;;5051788;28;20037;-56
2023/08/26 10:58:46;;;;;;;16.07;10.20;;;;;;;;;;4716683;28;10000424;-53
2023/08/26 11:01:12;;;;;;;15.48;10.27;;;;;;;;;;5055613;28;20301;-52
2023/08/26 11:03:38;;;;;;;17.83;10.20;;;;;;;;;;5065048;28;20116;-52
2023/08/26 11:06:12;;;;;;;17.25;10.10;;;;;;;;;;5067657;28;20447;-54
2023/08/26 11:08:38;;;;;;;15.98;10.40;;;;;;;;;;5059238;28;20024;-56
2023/08/26 11:11:05;;;;;;;15.88;9.88;;;;;;;;;;5058856;28;20074;-49
2023/08/26 11:13:31;;;;;;;15.65;10.38;;;;;;;;;;5060130;28;20037;-54
2023/08/26 11:15:57;;;;;;;16.27;10.43;;;;;;;;;;5059479;28;20078;-54
2023/08/26 11:18:23;;;;;;;15.35;10.07;;;;;;;;;;5056607;28;20393;-58
2023/08/26 11:20:49;;;;;;;15.45;10.30;;;;;;;;;;5058187;28;20031;-57
2023/08/26 11:23:15;;;;;;;21.77;10.40;;;;;;;;;;5057335;28;20021;-56
2023/08/26 11:25:41;;;;;;;17.38;10.50;;;;;;;;;;5038471;28;20025;-54
2023/08/26 11:28:08;;;;;;;15.43;10.10;;;;;;;;;;5058231;28;20517;-55
2023/08/26 11:30:40;;;;;;;15.35;9.65;;;;;;;;;;5058835;28;20017;-56
2023/08/26 11:33:10;;;;;;;15.80;10.55;;;;;;;;;;5057817;28;20028;-54
2023/08/26 11:35:38;;;;;;;16.17;10.35;;;;;;;;;;5056414;28;20029;-56
2023/08/26 11:38:05;;;;;;;16.15;10.48;;;;;;;;;;5049574;28;20067;-54
2023/08/26 11:40:32;;;;;;;16.20;11.13;;;;;;;;;;5068403;28;20050;-55
2023/08/26 11:42:58;;;;;;;15.73;10.95;;;;;;;;;;5050154;28;20067;-57
2023/08/26 11:45:24;;;;;;;17.50;11.10;;;;;;;;;;5068177;28;20040;-53
2023/08/26 11:47:50;;;;;;;16.50;10.63;;;;;;;;;;5068188;28;20028;-52
2023/08/26 11:50:17;;;;;;;16.05;11.32;;;;;;;;;;5068112;28;20025;-52
2023/08/26 11:52:43;;;;;;;16.25;11.00;;;;;;;;;;5067948;28;20366;-56
2023/08/26 11:55:10;;;;;;;16.05;10.82;;;;;;;;;;5067816;28;20025;-55
2023/08/26 11:57:38;;;;;;;17.27;11.10;;;;;;;;;;5067718;28;20107;-52
2023/08/26 12:00:11;;;;;;;15.27;10.95;;;;;;;;;;5067796;28;20051;-67
2023/08/26 12:02:37;;;;;;;16.70;11.32;;;;;;;;;;5068380;28;20024;-56
2023/08/26 12:05:03;;;;;;;17.55;10.90;;;;;;;;;;5049413;28;20036;-56
2023/08/26 12:07:29;;;;;;;14.65;11.00;;;;;;;;;;5067508;28;20024;-57
2023/08/26 12:09:56;;;;;;;15.20;10.93;;;;;;;;;;5067832;28;20036;-55
2023/08/26 12:12:22;;;;;;;15.20;11.02;;;;;;;;;;5067685;28;20024;-53
2023/08/26 12:14:49;;;;;;;15.57;11.10;;;;;;;;;;5049352;28;20076;-56
2023/08/26 12:17:15;;;;;;;15.68;10.82;;;;;;;;;;5049569;28;20121;-57
2023/08/26 12:19:42;;;;;;;16.92;10.80;;;;;;;;;;5067293;28;20146;-52
2023/08/26 12:22:11;;;;;;;20.20;11.80;;;;;;;;;;5067413;28;20024;-54
2023/08/26 12:24:38;;;;;;;16.75;10.85;;;;;;;;;;5067446;28;20024;-53
2023/08/26 12:27:08;;;;;;;17.98;11.25;;;;;;;;;;5067426;28;20028;-52
2023/08/26 12:29:34;;;;;;;18.05;11.10;;;;;;;;;;5067318;28;20071;-54
2023/08/26 12:32:00;;;;;;;15.05;10.90;;;;;;;;;;5067281;28;20035;-55
2023/08/26 12:34:26;;;;;;;15.77;10.55;;;;;;;;;;5057926;28;20439;-57
2023/08/26 12:36:52;;;;;;;15.65;10.38;;;;;;;;;;5057848;28;20021;-53
2023/08/26 12:39:18;;;;;;;15.75;10.60;;;;;;;;;;5062340;28;20108;-52
2023/08/26 12:41:44;;;;;;;15.10;10.75;;;;;;;;;;5063808;28;20032;-57
2023/08/26 12:44:10;;;;;;;16.73;11.02;;;;;;;;;;5069503;28;20112;-60
2023/08/26 12:46:36;;;;;;;15.20;10.90;;;;;;;;;;5069774;28;20028;-60
2023/08/26 12:49:02;;;;;;;16.10;10.40;;;;;;;;;;5069489;28;20028;-56
2023/08/26 12:51:28;;;;;;;15.20;10.43;;;;;;;;;;5069870;28;20115;-60
2023/08/26 12:53:54;;;;;;;16.52;10.70;;;;;;;;;;5069500;28;20036;-58
2023/08/26 12:56:21;;;;;;;15.25;10.93;;;;;;;;;;5069927;28;20017;-60
2023/08/26 12:58:49;;;;;;;16.90;11.07;;;;;;;;;;5069320;28;20040;-60
2023/08/26 13:01:15;;;;;;;15.95;11.20;;;;;;;;;;5069798;28;20016;-61
2023/08/26 13:03:41;;;;;;;16.00;11.57;;;;;;;;;;5069334;28;20112;-61
2023/08/26 13:06:07;;;;;;;16.17;11.50;;;;;;;;;;5065487;28;20454;-59
2023/08/26 13:08:33;;;;;;;17.25;11.30;;;;;;;;;;5048919;28;20078;-59
2023/08/26 13:11:00;;;;;;;15.75;11.60;;;;;;;;;;5049450;28;20025;-60
2023/08/26 13:13:26;;;;;;;17.08;11.48;;;;;;;;;;5031668;28;20481;-61
2023/08/26 13:15:52;;;;;;;18.30;11.48;;;;;;;;;;5049092;28;20048;-56
2023/08/26 13:18:19;;;;;;;16.97;11.00;;;;;;;;;;4704660;28;10000775;-60
2023/08/26 13:20:45;;;;;;;15.88;11.57;;;;;;;;;;5066557;28;20147;-62
2023/08/26 13:23:11;;;;;;;15.32;11.23;;;;;;;;;;5066404;28;20074;-62
2023/08/26 13:25:37;;;;;;;17.70;11.52;;;;;;;;;;5066740;28;20020;-62
2023/08/26 13:28:05;;;;;;;16.50;11.25;;;;;;;;;;5066870;28;20583;-62
2023/08/26 13:30:31;;;;;;;16.10;11.93;;;;;;;;;;5049083;28;20070;-61
2023/08/26 13:32:57;;;;;;;16.30;11.70;;;;;;;;;;5066887;28;20028;-62
2023/08/26 13:35:23;;;;;;;17.65;12.05;;;;;;;;;;5066305;28;20024;-59
2023/08/26 13:37:49;;;;;;;17.02;12.00;;;;;;;;;;5066519;28;20104;-62
2023/08/26 13:40:15;;;;;;;15.40;11.70;;;;;;;;;;5067195;28;20094;-59
2023/08/26 13:42:41;;;;;;;17.38;12.70;;;;;;;;;;5066933;28;20032;-60
2023/08/26 13:45:08;;;;;;;15.90;11.80;;;;;;;;;;5066998;28;20024;-59
2023/08/26 13:47:34;;;;;;;17.02;12.57;;;;;;;;;;5066690;28;20025;-60
2023/08/26 13:50:01;;;;;;;16.73;12.00;;;;;;;;;;5048235;28;20035;-62
2023/08/26 13:52:26;;;;;;;16.48;12.18;;;;;;;;;;5066352;28;20073;-61
2023/08/26 13:54:53;;;;;;;16.27;12.27;;;;;;;;;;5058680;28;20055;-62
2023/08/26 13:57:19;;;;;;;17.50;12.70;;;;;;;;;;5046389;28;20493;-61
2023/08/26 13:59:45;;;;;;;15.30;12.13;;;;;;;;;;5045944;28;20037;-61
2023/08/26 14:02:11;;;;;;;16.58;12.73;;;;;;;;;;5046329;28;20079;-58
2023/08/26 14:04:37;;;;;;;15.60;12.40;;;;;;;;;;5045968;28;20033;-60
2023/08/26 14:07:03;;;;;;;17.05;12.70;;;;;;;;;;5049386;28;20104;-60
2023/08/26 14:09:29;;;;;;;15.77;12.30;;;;;;;;;;5066041;28;20036;-61
2023/08/26 14:11:58;;;;;;;15.52;11.70;;;;;;;;;;5066036;28;20024;-61
2023/08/26 14:14:24;;;;;;;15.45;11.82;;;;;;;;;;5066557;28;20047;-61
2023/08/26 14:16:50;;;;;;;16.23;12.25;;;;;;;;;;5067755;28;20020;-61
2023/08/26 14:19:16;;;;;;;16.02;12.30;;;;;;;;;;5068117;28;20028;-61